Time;durP1;ratioP1;P1;durP2;ratioP2;P2;SDS_P1;SDS_P2;PMS_P1;PMS_P2;Temp;Humidity;BMP_temperature;BMP_pressure;BME280_temperature;BME280_humidity;BME280_pressure;Samples;Min_cycle;Max_cycle;Signal;HPM_P1;HPM_P2
2023/10/30 00:02:06;;;;;;;43.30;38.70;;;;;;;7.57;100.00;98034.87;109851;1249;59222;-70
2023/10/30 00:04:34;;;;;;;44.00;37.60;;;;;;;7.58;100.00;98032.34;109608;1249;59306;-71
2023/10/30 00:07:00;;;;;;;44.40;39.60;;;;;;;7.59;100.00;98031.69;109835;1250;64989;-71
2023/10/30 00:09:27;;;;;;;41.90;37.40;;;;;;;7.60;100.00;98038.51;109419;1250;59217;-71
2023/10/30 00:11:54;;;;;;;39.90;35.90;;;;;;;7.59;100.00;98032.63;109604;1249;59082;-71
2023/10/30 00:14:20;;;;;;;40.70;36.30;;;;;;;7.58;100.00;98025.80;109860;1251;64827;-71
2023/10/30 00:16:47;;;;;;;39.70;34.50;;;;;;;7.57;100.00;98026.89;109847;1250;61307;-71
2023/10/30 00:19:14;;;;;;;39.20;35.00;;;;;;;7.57;100.00;98028.30;109857;1249;59015;-71
2023/10/30 00:21:40;;;;;;;44.80;40.00;;;;;;;7.55;100.00;98043.48;109802;1250;59086;-72
2023/10/30 00:24:07;;;;;;;43.60;39.20;;;;;;;7.54;100.00;98050.67;109619;1250;59056;-71
2023/10/30 00:26:35;;;;;;;43.90;39.10;;;;;;;7.55;100.00;98052.69;109858;1250;66088;-70
2023/10/30 00:29:02;;;;;;;45.70;39.60;;;;;;;7.56;100.00;98057.55;109518;1250;59344;-71
2023/10/30 00:31:28;;;;;;;43.60;39.10;;;;;;;7.55;100.00;98056.03;109578;1249;65199;-70
2023/10/30 00:33:55;;;;;;;42.40;37.80;;;;;;;7.54;100.00;98061.23;109872;1250;58984;-71
2023/10/30 00:36:21;;;;;;;41.40;37.10;;;;;;;7.53;100.00;98059.52;109863;1250;59048;-70
2023/10/30 00:38:47;;;;;;;41.70;37.10;;;;;;;7.53;100.00;98069.09;109909;1249;59210;-71
2023/10/30 00:41:14;;;;;;;39.20;34.60;;;;;;;7.51;100.00;98073.33;109529;1250;59346;-71
2023/10/30 00:43:40;;;;;;;41.20;36.60;;;;;;;7.51;100.00;98072.08;109872;1250;59385;-71
2023/10/30 00:46:07;;;;;;;39.20;34.00;;;;;;;7.53;100.00;98068.39;109887;1249;58939;-71
2023/10/30 00:48:33;;;;;;;41.30;37.00;;;;;;;7.56;100.00;98064.64;109874;1249;59016;-71
2023/10/30 00:51:00;;;;;;;41.30;35.30;;;;;;;7.58;100.00;98063.05;109830;1250;59078;-71
2023/10/30 00:53:26;;;;;;;45.40;38.80;;;;;;;7.61;100.00;98061.98;109887;1250;60116;-71
2023/10/30 00:55:53;;;;;;;40.20;35.90;;;;;;;7.63;100.00;98062.88;109861;1250;59103;-71
2023/10/30 00:58:19;;;;;;;53.20;45.80;;;;;;;7.64;100.00;98058.56;109853;1251;59041;-71
2023/10/30 01:00:46;;;;;;;50.80;45.50;;;;;;;7.65;100.00;98051.75;109854;1249;59156;-71
2023/10/30 01:03:12;;;;;;;50.50;45.30;;;;;;;7.68;100.00;98046.09;109883;1249;66169;-71
2023/10/30 01:05:39;;;;;;;43.10;38.70;;;;;;;7.70;100.00;98040.65;109865;1250;59849;-71
2023/10/30 01:08:08;;;;;;;40.40;36.10;;;;;;;7.71;100.00;98040.56;109841;1249;65286;-71
2023/10/30 01:10:37;;;;;;;42.20;35.90;;;;;;;7.69;100.00;98038.73;109869;1251;59731;-71
2023/10/30 01:13:04;;;;;;;36.70;32.70;;;;;;;7.66;100.00;98042.33;109516;1249;59080;-71
2023/10/30 01:15:30;;;;;;;38.70;34.70;;;;;;;7.63;100.00;98047.65;109577;1251;66045;-71
2023/10/30 01:17:57;;;;;;;48.70;43.30;;;;;;;7.61;100.00;98050.63;109920;1250;58992;-71
2023/10/30 01:20:23;;;;;;;44.10;39.30;;;;;;;7.61;100.00;98053.13;109869;1250;59322;-71
2023/10/30 01:22:50;;;;;;;44.80;40.10;;;;;;;7.63;100.00;98053.36;109536;1250;59413;-71
2023/10/30 01:25:16;;;;;;;44.60;39.80;;;;;;;7.64;100.00;98053.95;109870;1250;59135;-71
2023/10/30 01:27:43;;;;;;;44.20;37.30;;;;;;;7.66;100.00;98051.91;109867;1250;59340;-71
2023/10/30 01:30:11;;;;;;;44.00;37.30;;;;;;;7.66;100.00;98045.38;109891;1249;59141;-71
2023/10/30 01:32:37;;;;;;;41.80;36.40;;;;;;;7.65;100.00;98041.33;109882;1250;64065;-71
2023/10/30 01:35:04;;;;;;;39.40;35.30;;;;;;;7.65;100.00;98043.27;109847;1250;58942;-72
2023/10/30 01:37:31;;;;;;;41.40;36.60;;;;;;;7.66;100.00;98039.89;109834;1251;58964;-71
2023/10/30 01:39:57;;;;;;;40.00;35.70;;;;;;;7.65;100.00;98037.66;109860;1250;66159;-71
2023/10/30 01:42:23;;;;;;;50.30;44.80;;;;;;;7.62;100.00;98029.23;109894;1249;59077;-71
2023/10/30 01:44:54;;;;;;;43.30;38.50;;;;;;;7.62;100.00;98027.05;109822;1250;59010;-71
2023/10/30 01:47:21;;;;;;;47.50;41.80;;;;;;;7.62;100.00;98025.83;109865;1249;59148;-71
2023/10/30 01:49:48;;;;;;;45.70;40.80;;;;;;;7.61;100.00;98022.91;109592;1251;58957;-71
2023/10/30 01:52:15;;;;;;;43.80;39.10;;;;;;;7.63;100.00;98020.31;109891;1249;67152;-71
2023/10/30 01:54:43;;;;;;;42.30;37.70;;;;;;;7.65;100.00;98017.17;109883;1250;60128;-71
2023/10/30 01:57:10;;;;;;;45.50;38.60;;;;;;;7.68;100.00;98016.20;109852;1249;64108;-71
2023/10/30 01:59:37;;;;;;;45.20;40.40;;;;;;;7.69;100.00;98021.63;109856;1249;58963;-71
2023/10/30 02:02:03;;;;;;;43.70;39.00;;;;;;;7.68;100.00;98021.87;109854;1250;58949;-72
2023/10/30 02:04:30;;;;;;;43.80;39.20;;;;;;;7.68;100.00;98018.19;109870;1250;66176;-71
2023/10/30 02:06:57;;;;;;;43.50;38.80;;;;;;;7.68;100.00;98014.77;109884;1251;60188;-71
2023/10/30 02:09:24;;;;;;;47.10;40.20;;;;;;;7.70;100.00;98012.36;109338;1249;65203;-71
2023/10/30 02:11:50;;;;;;;47.60;41.80;;;;;;;7.70;100.00;98011.31;109853;1250;59249;-71
2023/10/30 02:14:17;;;;;;;47.90;42.90;;;;;;;7.71;100.00;98009.83;109889;1250;59156;-71
2023/10/30 02:16:43;;;;;;;44.20;39.40;;;;;;;7.73;100.00;98014.65;109840;1250;59034;-71
2023/10/30 02:19:23;;;;;;;45.20;40.40;;;;;;;7.74;100.00;98015.45;109641;1249;59008;-71
2023/10/30 02:21:51;;;;;;;43.30;38.70;;;;;;;7.75;100.00;98022.98;109833;1251;64053;-70
2023/10/30 02:24:18;;;;;;;49.80;44.40;;;;;;;7.73;100.00;98024.56;109828;1250;59049;-71
2023/10/30 02:26:49;;;;;;;50.10;44.70;;;;;;;7.72;100.00;98022.31;109514;1250;59149;-71
2023/10/30 02:29:16;;;;;;;51.20;45.90;;;;;;;7.77;100.00;98029.41;109389;1250;64469;-71
2023/10/30 02:31:43;;;;;;;52.10;46.50;;;;;;;7.81;100.00;98044.14;109578;1251;59030;-71
2023/10/30 02:34:12;;;;;;;53.00;45.50;;;;;;;7.85;100.00;98055.31;109857;1249;62851;-71
2023/10/30 02:36:38;;;;;;;62.20;54.00;;;;;;;7.90;100.00;98061.14;109866;1250;59306;-71
2023/10/30 02:39:05;;;;;;;63.50;55.20;;;;;;;7.96;100.00;98063.25;109881;1249;59184;-71
2023/10/30 02:41:31;;;;;;;67.90;58.40;;;;;;;7.98;100.00;98065.20;109859;1250;65955;-71
2023/10/30 02:43:59;;;;;;;70.30;62.40;;;;;;;8.00;100.00;98066.84;109354;1249;59556;-71
2023/10/30 02:46:26;;;;;;;74.40;65.50;;;;;;;8.00;100.00;98068.05;109845;1249;63739;-71
2023/10/30 02:48:53;;;;;;;73.50;65.40;;;;;;;8.01;100.00;98066.80;109838;1250;58931;-71
2023/10/30 02:51:19;;;;;;;67.00;58.70;;;;;;;8.00;100.00;98060.09;109598;1250;58936;-71
2023/10/30 02:53:46;;;;;;;65.00;57.90;;;;;;;8.00;100.00;98054.61;109816;1250;59016;-71
2023/10/30 02:56:12;;;;;;;63.30;56.50;;;;;;;8.00;100.00;98044.91;109871;1251;60066;-71
2023/10/30 02:58:39;;;;;;;64.90;55.40;;;;;;;7.99;100.00;98046.23;109883;1250;59072;-71
2023/10/30 03:01:06;;;;;;;64.30;53.70;;;;;;;7.97;100.00;98043.16;109824;1250;58906;-70
2023/10/30 03:03:32;;;;;;;58.20;52.10;;;;;;;7.94;100.00;98033.64;109851;1250;59034;-70
2023/10/30 03:05:59;;;;;;;55.00;48.90;;;;;;;7.91;100.00;98038.45;109543;1249;66522;-70
2023/10/30 03:08:25;;;;;;;62.30;54.00;;;;;;;7.87;100.00;98053.23;109860;1250;60061;-70
2023/10/30 03:10:52;;;;;;;60.40;53.00;;;;;;;7.86;100.00;98062.84;109579;1251;59071;-71
2023/10/30 03:13:18;;;;;;;61.80;54.20;;;;;;;7.88;100.00;98063.79;109869;1250;59248;-71
2023/10/30 03:15:45;;;;;;;59.30;50.90;;;;;;;7.89;100.00;98061.43;109873;1253;59830;-71
2023/10/30 03:18:12;;;;;;;57.80;50.30;;;;;;;7.88;100.00;98061.43;109483;1251;64869;-71
2023/10/30 03:20:39;;;;;;;55.80;48.00;;;;;;;7.86;100.00;98063.73;109549;1250;61173;-71
2023/10/30 03:23:05;;;;;;;55.70;48.90;;;;;;;7.84;100.00;98067.80;109857;1249;64247;-70
2023/10/30 03:25:32;;;;;;;55.60;49.10;;;;;;;7.82;100.00;98074.09;109838;1252;58992;-70
2023/10/30 03:27:58;;;;;;;60.20;48.30;;;;;;;7.81;100.00;98071.33;109837;1251;59078;-70
2023/10/30 03:30:25;;;;;;;53.00;47.40;;;;;;;7.80;100.00;98070.02;109514;1250;59031;-70
2023/10/30 03:32:51;;;;;;;53.10;47.20;;;;;;;7.78;100.00;98069.59;109588;1250;59049;-70
2023/10/30 03:35:17;;;;;;;54.90;48.80;;;;;;;7.76;100.00;98064.30;109846;1250;59071;-71
2023/10/30 03:37:44;;;;;;;52.90;47.50;;;;;;;7.73;100.00;98062.20;109826;1250;59005;-71
2023/10/30 03:40:12;;;;;;;70.30;62.80;;;;;;;7.72;100.00;98060.36;109834;1251;58998;-70
2023/10/30 03:42:38;;;;;;;70.60;63.20;;;;;;;7.72;100.00;98056.48;109329;1250;66198;-71
2023/10/30 03:45:07;;;;;;;63.40;56.80;;;;;;;7.71;100.00;98061.98;109844;1251;59295;-71
2023/10/30 03:47:33;;;;;;;56.40;50.60;;;;;;;7.71;100.00;98066.75;109830;1249;62842;-70
2023/10/30 03:50:00;;;;;;;57.90;51.60;;;;;;;7.68;100.00;98065.67;109813;1251;58996;-71
2023/10/30 03:52:27;;;;;;;64.30;57.50;;;;;;;7.66;100.00;98063.70;109853;1251;59811;-71
2023/10/30 03:54:54;;;;;;;59.20;52.90;;;;;;;7.66;100.00;98066.38;109861;1250;64826;-71
2023/10/30 03:57:21;;;;;;;58.10;51.80;;;;;;;7.66;100.00;98068.35;109518;1250;61432;-70
2023/10/30 03:59:47;;;;;;;61.50;54.60;;;;;;;7.64;100.00;98071.33;109868;1250;62844;-70
2023/10/30 04:02:13;;;;;;;65.90;56.20;;;;;;;7.64;100.00;98069.58;109841;1250;58964;-70
2023/10/30 04:04:40;;;;;;;63.10;56.30;;;;;;;7.65;100.00;98070.02;109825;1250;59102;-70
2023/10/30 04:07:07;;;;;;;64.60;57.20;;;;;;;7.66;100.00;98068.84;109382;1251;66960;-71
2023/10/30 04:09:33;;;;;;;69.20;59.90;;;;;;;7.69;100.00;98069.55;109700;1250;58945;-71
2023/10/30 04:12:02;;;;;;;71.30;63.80;;;;;;;7.71;100.00;98077.73;109674;1250;59060;-71
2023/10/30 04:14:32;;;;;;;70.90;63.30;;;;;;;7.72;100.00;98083.29;109661;1251;58942;-71
2023/10/30 04:17:02;;;;;;;66.00;58.80;;;;;;;7.73;100.00;98086.81;109410;1251;59592;-70
2023/10/30 04:19:29;;;;;;;61.80;55.20;;;;;;;7.73;100.00;98091.88;109707;1249;64851;-70
2023/10/30 04:21:56;;;;;;;61.80;54.40;;;;;;;7.75;100.00;98093.34;109751;1251;59790;-71
2023/10/30 04:24:22;;;;;;;64.00;56.30;;;;;;;7.79;100.00;98092.02;109667;1251;59298;-70
2023/10/30 04:26:49;;;;;;;69.10;59.00;;;;;;;7.82;100.00;98091.11;109676;1251;59056;-70
2023/10/30 04:29:15;;;;;;;70.00;62.70;;;;;;;7.84;100.00;98093.23;109734;1251;59066;-71
2023/10/30 04:31:42;;;;;;;72.70;64.00;;;;;;;7.86;100.00;98096.12;109699;1251;59054;-70
2023/10/30 04:34:09;;;;;;;70.20;62.40;;;;;;;7.86;100.00;98096.45;109678;1251;60152;-70
2023/10/30 04:36:35;;;;;;;68.70;61.30;;;;;;;7.87;100.00;98102.21;109494;1250;62499;-70
2023/10/30 04:39:01;;;;;;;63.40;56.50;;;;;;;7.87;100.00;98102.38;109624;1249;59027;-70
2023/10/30 04:41:31;;;;;;;62.00;55.40;;;;;;;7.88;100.00;98101.11;109427;1250;59176;-70
2023/10/30 04:43:58;;;;;;;62.80;56.30;;;;;;;7.89;100.00;98105.27;109524;1251;67262;-70
2023/10/30 04:46:24;;;;;;;60.10;53.80;;;;;;;7.90;100.00;98104.50;109715;1250;59234;-70
2023/10/30 04:48:50;;;;;;;61.50;55.20;;;;;;;7.91;100.00;98105.66;109720;1251;59059;-70
2023/10/30 04:51:17;;;;;;;62.30;55.50;;;;;;;7.92;100.00;98102.77;109403;1251;58965;-70
2023/10/30 04:53:43;;;;;;;62.00;54.60;;;;;;;7.91;100.00;98110.97;109663;1251;58907;-70
2023/10/30 04:56:10;;;;;;;61.70;55.20;;;;;;;7.90;100.00;98120.25;109497;1251;59006;-70
2023/10/30 04:58:36;;;;;;;58.00;51.80;;;;;;;7.89;100.00;98127.73;109669;1251;59171;-70
2023/10/30 05:01:09;;;;;;;56.90;50.80;;;;;;;7.86;100.00;98131.27;109362;1251;59036;-70
2023/10/30 05:03:36;;;;;;;54.80;49.00;;;;;;;7.83;100.00;98137.37;109788;1251;59026;-70
2023/10/30 05:06:04;;;;;;;54.00;48.30;;;;;;;7.80;100.00;98142.52;109840;1253;59268;-70
2023/10/30 05:08:32;;;;;;;56.50;48.00;;;;;;;7.77;100.00;98141.14;109568;1251;66032;-70
2023/10/30 05:11:02;;;;;;;53.30;47.30;;;;;;;7.74;100.00;98134.09;109840;1249;60190;-70
2023/10/30 05:13:29;;;;;;;52.30;46.00;;;;;;;7.71;100.00;98138.38;109828;1251;64855;-70
2023/10/30 05:15:57;;;;;;;50.00;44.70;;;;;;;7.67;100.00;98150.14;109816;1250;58955;-70
2023/10/30 05:18:24;;;;;;;51.50;45.60;;;;;;;7.62;100.00;98152.92;109790;1251;58965;-70
2023/10/30 05:20:51;;;;;;;53.70;48.00;;;;;;;7.58;100.00;98151.62;109827;1251;65841;-70
2023/10/30 05:23:18;;;;;;;64.30;54.30;;;;;;;7.58;100.00;98148.48;109859;1251;58981;-70
2023/10/30 05:25:44;;;;;;;64.40;53.70;;;;;;;7.58;100.00;98148.30;109813;1251;63854;-70
2023/10/30 05:28:11;;;;;;;59.80;52.60;;;;;;;7.57;100.00;98153.13;109769;1249;58948;-70
2023/10/30 05:30:38;;;;;;;64.50;55.30;;;;;;;7.56;100.00;98148.61;109806;1251;58982;-70
2023/10/30 05:33:05;;;;;;;62.40;52.60;;;;;;;7.55;100.00;98145.47;109617;1251;64522;-70
2023/10/30 05:35:31;;;;;;;61.20;51.10;;;;;;;7.54;100.00;98151.41;109816;1249;60175;-70
2023/10/30 05:37:58;;;;;;;64.10;53.30;;;;;;;7.54;100.00;98159.68;109824;1251;62397;-70
2023/10/30 05:40:25;;;;;;;61.20;50.00;;;;;;;7.55;100.00;98161.71;109817;1251;58967;-71
2023/10/30 05:42:51;;;;;;;57.70;49.20;;;;;;;7.57;100.00;98161.97;109826;1249;59007;-69
2023/10/30 05:45:18;;;;;;;58.00;48.90;;;;;;;7.58;100.00;98164.02;109549;1250;59096;-70
2023/10/30 05:47:44;;;;;;;54.20;47.60;;;;;;;7.59;100.00;98164.30;109830;1250;59059;-70
2023/10/30 05:50:11;;;;;;;57.10;48.70;;;;;;;7.61;100.00;98160.98;109809;1251;59626;-70
2023/10/30 05:52:37;;;;;;;57.00;46.50;;;;;;;7.63;100.00;98157.98;109809;1251;59180;-70
2023/10/30 05:55:05;;;;;;;55.70;49.00;;;;;;;7.66;100.00;98149.67;109582;1251;59121;-69
2023/10/30 05:57:33;;;;;;;51.80;46.30;;;;;;;7.71;100.00;98155.01;109444;1251;66024;-70
2023/10/30 06:00:00;;;;;;;52.20;42.60;;;;;;;7.77;100.00;98161.45;109819;1251;60117;-69
2023/10/30 06:02:26;;;;;;;55.60;45.80;;;;;;;7.90;100.00;98163.97;109818;1251;62921;-70
2023/10/30 06:04:53;;;;;;;55.90;48.40;;;;;;;7.97;100.00;98159.91;109834;1251;58966;-70
2023/10/30 06:07:20;;;;;;;53.80;45.40;;;;;;;8.04;100.00;98163.70;109803;1251;58950;-70
2023/10/30 06:09:47;;;;;;;52.20;44.00;;;;;;;8.12;100.00;98174.41;109889;1250;65734;-70
2023/10/30 06:12:15;;;;;;;65.80;53.60;;;;;;;8.21;100.00;98184.40;109827;1251;60190;-70
2023/10/30 06:14:42;;;;;;;57.20;50.80;;;;;;;8.29;100.00;98185.98;109838;1249;65227;-71
2023/10/30 06:17:09;;;;;;;72.50;64.10;;;;;;;8.38;100.00;98187.66;109813;1251;58937;-70
2023/10/30 06:19:35;;;;;;;63.00;55.50;;;;;;;8.46;100.00;98183.23;109803;1253;59102;-70
2023/10/30 06:22:02;;;;;;;62.70;55.90;;;;;;;8.51;100.00;98178.80;109545;1251;66072;-70
2023/10/30 06:24:31;;;;;;;56.70;50.70;;;;;;;8.54;100.00;98177.14;109860;1249;60269;-70
2023/10/30 06:26:57;;;;;;;52.50;46.70;;;;;;;8.56;100.00;98177.30;109815;1251;65303;-70
2023/10/30 06:29:23;;;;;;;54.90;48.20;;;;;;;8.59;100.00;98178.05;109776;1251;59170;-69
2023/10/30 06:31:50;;;;;;;55.40;49.70;;;;;;;8.61;100.00;98175.93;109809;1252;59004;-70
2023/10/30 06:34:16;;;;;;;59.10;52.70;;;;;;;8.65;100.00;98173.17;109860;1251;59034;-70
2023/10/30 06:36:44;;;;;;;57.30;51.40;;;;;;;8.71;100.00;98175.21;109514;1249;59120;-70
2023/10/30 06:39:10;;;;;;;49.90;44.80;;;;;;;8.75;100.00;98177.38;109810;1249;62833;-70
2023/10/30 06:41:37;;;;;;;49.40;42.60;;;;;;;8.80;100.00;98182.17;109796;1250;59044;-69
2023/10/30 06:44:03;;;;;;;57.70;48.00;;;;;;;8.84;100.00;98181.20;109805;1251;58863;-69
2023/10/30 06:46:30;;;;;;;52.10;46.40;;;;;;;8.88;100.00;98181.41;109800;1251;66136;-71
2023/10/30 06:48:56;;;;;;;49.00;41.70;;;;;;;8.96;100.00;98182.25;109834;1251;58984;-70
2023/10/30 06:51:23;;;;;;;52.00;46.30;;;;;;;9.05;100.00;98180.89;109830;1249;59016;-69
2023/10/30 06:53:49;;;;;;;49.80;44.50;;;;;;;9.16;100.00;98184.53;109769;1251;59246;-70
2023/10/30 06:56:15;;;;;;;54.30;44.90;;;;;;;9.26;100.00;98187.45;109821;1250;59704;-70
2023/10/30 06:58:42;;;;;;;51.20;45.60;;;;;;;9.37;100.00;98191.63;109789;1251;65855;-71
2023/10/30 07:01:09;;;;;;;51.00;45.00;;;;;;;9.47;100.00;98189.80;109821;1251;59065;-71
2023/10/30 07:03:36;;;;;;;48.60;43.40;;;;;;;9.57;100.00;98195.65;109765;1249;58998;-70
2023/10/30 07:06:02;;;;;;;55.20;46.60;;;;;;;9.66;100.00;98202.03;109814;1251;59000;-70
2023/10/30 07:08:29;;;;;;;50.50;44.00;;;;;;;9.76;100.00;98201.61;109444;1249;59024;-71
2023/10/30 07:10:55;;;;;;;49.00;43.80;;;;;;;9.88;100.00;98198.38;109833;1251;65561;-71
2023/10/30 07:13:23;;;;;;;46.30;41.50;;;;;;;10.01;100.00;98189.77;109407;1251;60136;-71
2023/10/30 07:15:50;;;;;;;44.00;39.50;;;;;;;10.14;100.00;98181.81;109425;1251;65098;-71
2023/10/30 07:18:16;;;;;;;50.80;44.50;;;;;;;10.29;100.00;98177.83;109825;1253;59022;-71
2023/10/30 07:20:43;;;;;;;56.20;46.20;;;;;;;10.41;100.00;98172.09;109842;1250;59025;-71
2023/10/30 07:23:10;;;;;;;49.00;43.50;;;;;;;10.55;100.00;98172.62;109839;1251;66805;-71
2023/10/30 07:25:36;;;;;;;48.50;43.30;;;;;;;10.68;100.00;98179.52;109815;1251;59003;-71
2023/10/30 07:28:03;;;;;;;44.60;39.90;;;;;;;10.80;100.00;98183.36;109591;1249;59059;-71
2023/10/30 07:30:29;;;;;;;67.10;51.30;;;;;;;10.92;100.00;98190.05;109784;1249;59022;-70
2023/10/30 07:32:59;;;;;;;94.20;60.20;;;;;;;11.02;100.00;98189.20;109598;1249;59038;-70
2023/10/30 07:35:25;;;;;;;45.30;38.20;;;;;;;11.13;100.00;98189.20;109833;1249;65716;-71
2023/10/30 07:37:52;;;;;;;35.30;31.70;;;;;;;11.24;100.00;98187.77;109798;1251;59019;-71
2023/10/30 07:40:19;;;;;;;34.20;30.30;;;;;;;11.34;100.00;98184.49;109780;1249;59130;-71
2023/10/30 07:42:45;;;;;;;30.70;27.50;;;;;;;11.45;100.00;98183.95;109802;1249;58944;-71
2023/10/30 07:45:12;;;;;;;27.30;23.90;;;;;;;11.55;100.00;98183.21;109841;1251;59033;-70
2023/10/30 07:47:38;;;;;;;23.10;19.00;;;;;;;11.68;100.00;98184.17;109809;1250;58872;-71
2023/10/30 07:50:05;;;;;;;23.40;19.60;;;;;;;11.77;100.00;98182.27;109804;1251;59082;-71
2023/10/30 07:52:32;;;;;;;27.20;22.10;;;;;;;11.87;100.00;98183.79;109562;1251;64926;-70
2023/10/30 07:54:59;;;;;;;26.60;23.90;;;;;;;11.97;100.00;98181.62;109826;1250;58986;-71
2023/10/30 07:57:25;;;;;;;24.90;20.90;;;;;;;12.09;100.00;98183.82;109786;1250;59097;-70
2023/10/30 07:59:52;;;;;;;25.60;20.40;;;;;;;12.19;100.00;98187.10;109862;1251;58954;-70
2023/10/30 08:02:18;;;;;;;30.90;25.30;;;;;;;12.29;100.00;98188.57;109758;1250;59366;-71
2023/10/30 08:04:45;;;;;;;33.70;26.70;;;;;;;12.41;100.00;98196.96;109830;1250;62499;-70
2023/10/30 08:07:11;;;;;;;35.90;27.50;;;;;;;12.52;100.00;98196.54;109847;1249;59067;-70
2023/10/30 08:09:38;;;;;;;27.10;24.40;;;;;;;12.64;100.00;98194.23;109784;1250;59022;-70
2023/10/30 08:12:05;;;;;;;29.00;25.60;;;;;;;12.77;100.00;98195.95;109795;1249;59356;-70
2023/10/30 08:14:32;;;;;;;28.40;24.00;;;;;;;12.88;100.00;98190.98;109805;1251;59365;-70
2023/10/30 08:17:00;;;;;;;26.10;23.40;;;;;;;13.01;100.00;98188.44;109794;1249;63773;-70
2023/10/30 08:19:26;;;;;;;29.60;25.10;;;;;;;13.13;100.00;98192.32;109830;1249;59005;-70
2023/10/30 08:21:53;;;;;;;32.80;27.00;;;;;;;13.23;100.00;98193.19;109804;1251;59966;-70
2023/10/30 08:24:19;;;;;;;32.40;27.80;;;;;;;13.34;100.00;98190.27;109804;1251;59034;-70
2023/10/30 08:26:46;;;;;;;34.40;30.80;;;;;;;13.46;100.00;98189.16;109823;1249;58944;-70
2023/10/30 08:29:12;;;;;;;38.40;32.30;;;;;;;13.57;100.00;98182.27;109571;1251;59022;-70
2023/10/30 08:31:38;;;;;;;39.70;32.70;;;;;;;13.70;100.00;98178.90;109766;1249;59301;-70
2023/10/30 08:34:05;;;;;;;38.90;31.30;;;;;;;13.84;100.00;98180.69;109794;1251;58961;-70
2023/10/30 08:36:31;;;;;;;34.50;29.50;;;;;;;14.00;100.00;98184.91;109814;1250;59106;-70
2023/10/30 08:38:58;;;;;;;35.20;25.00;;;;;;;14.16;100.00;98185.84;109548;1249;59106;-70
2023/10/30 08:41:24;;;;;;;27.40;21.00;;;;;;;14.32;100.00;98183.15;109770;1249;59171;-71
2023/10/30 08:43:51;;;;;;;29.20;21.90;;;;;;;14.48;100.00;98183.17;109819;1251;59460;-70
2023/10/30 08:46:18;;;;;;;22.80;16.50;;;;;;;14.66;100.00;98187.77;109785;1249;58962;-71
2023/10/30 08:48:46;;;;;;;16.00;12.50;;;;;;;14.82;100.00;98190.66;109784;1250;64485;-70
2023/10/30 08:51:13;;;;;;;17.30;12.70;;;;;;;14.95;100.00;98186.89;109859;1249;60217;-70
2023/10/30 08:53:39;;;;;;;19.30;12.90;;;;;;;15.08;100.00;98181.69;109839;1249;62901;-70
2023/10/30 08:56:06;;;;;;;19.60;13.50;;;;;;;15.20;100.00;98181.02;109797;1251;58952;-70
2023/10/30 08:58:33;;;;;;;18.50;13.60;;;;;;;15.31;100.00;98189.73;109672;1250;60077;-70
2023/10/30 09:00:59;;;;;;;22.30;12.70;;;;;;;15.44;100.00;98196.35;109769;1250;65825;-70
2023/10/30 09:03:26;;;;;;;15.30;10.70;;;;;;;15.56;100.00;98195.70;109824;1249;59041;-70
2023/10/30 09:05:53;;;;;;;20.00;11.70;;;;;;;15.66;100.00;98191.30;109776;1250;62516;-70
2023/10/30 09:08:19;;;;;;;15.30;11.10;;;;;;;15.74;100.00;98196.90;109691;1250;86660;-70
2023/10/30 09:10:46;;;;;;;14.80;9.50;;;;;;;15.81;100.00;98197.70;109780;1251;58964;-70
2023/10/30 09:13:13;;;;;;;15.40;10.10;;;;;;;15.85;100.00;98194.84;109592;1249;65340;-70
2023/10/30 09:15:39;;;;;;;11.70;9.70;;;;;;;15.91;100.00;98199.21;109804;1250;60158;-70
2023/10/30 09:18:06;;;;;;;15.00;10.90;;;;;;;15.98;100.00;98204.61;109746;1249;59044;-70
2023/10/30 09:20:32;;;;;;;11.90;10.30;;;;;;;16.06;100.00;98204.11;109808;1249;59044;-70
2023/10/30 09:22:59;;;;;;;13.00;10.20;;;;;;;16.13;100.00;98206.04;109790;1249;59013;-70
2023/10/30 09:25:25;;;;;;;14.10;10.90;;;;;;;16.22;100.00;98207.67;109804;1251;66027;-70
2023/10/30 09:27:52;;;;;;;13.70;9.60;;;;;;;16.25;100.00;98206.63;109809;1249;58959;-70
2023/10/30 09:30:18;;;;;;;13.90;10.10;;;;;;;16.27;100.00;98206.13;109751;1251;58913;-71
2023/10/30 09:32:45;;;;;;;12.90;10.10;;;;;;;16.29;100.00;98215.25;109759;1249;58984;-70
2023/10/30 09:35:11;;;;;;;15.20;9.20;;;;;;;16.28;100.00;98218.23;109545;1251;59059;-71
2023/10/30 09:37:39;;;;;;;12.40;9.10;;;;;;;16.29;100.00;98219.52;109835;1249;59123;-70
2023/10/30 09:40:06;;;;;;;13.30;8.70;;;;;;;16.31;100.00;98211.36;109401;1254;61368;-71
2023/10/30 09:42:35;;;;;;;11.60;8.60;;;;;;;16.32;100.00;98208.85;109768;1250;64128;-71
2023/10/30 09:45:04;;;;;;;14.20;9.00;;;;;;;16.33;100.00;98206.95;109772;1249;59319;-70
2023/10/30 09:47:30;;;;;;;13.80;9.00;;;;;;;16.39;100.00;98203.92;109790;1249;58972;-70
2023/10/30 09:49:58;;;;;;;12.10;9.20;;;;;;;16.53;100.00;98203.27;109876;1249;67033;-71
2023/10/30 09:52:26;;;;;;;17.30;9.30;;;;;;;16.68;100.00;98210.20;109837;1249;60094;-71
2023/10/30 09:54:54;;;;;;;15.30;10.60;;;;;;;16.86;100.00;98213.27;109812;1250;62797;-71
2023/10/30 09:57:21;;;;;;;14.90;9.60;;;;;;;17.01;100.00;98205.70;109613;1249;59005;-71
2023/10/30 09:59:53;;;;;;;15.40;10.40;;;;;;;17.13;100.00;98202.51;109765;1249;59141;-71
2023/10/30 10:02:20;;;;;;;15.60;10.80;;;;;;;17.26;100.00;98200.95;109798;1249;65999;-71
2023/10/30 10:04:47;;;;;;;13.40;9.80;;;;;;;17.34;100.00;98199.16;109789;1250;58952;-71
2023/10/30 10:07:15;;;;;;;14.20;9.70;;;;;;;17.39;100.00;98203.81;109773;1249;64067;-70
2023/10/30 10:10:00;;;;;;;18.00;10.80;;;;;;;17.47;100.00;98206.38;109562;1250;59059;-70
2023/10/30 10:12:29;;;;;;;13.50;9.20;;;;;;;17.58;100.00;98207.41;109804;1249;58865;-70
2023/10/30 10:14:57;;;;;;;12.30;9.10;;;;;;;17.68;100.00;98209.98;109784;1249;67317;-71
2023/10/30 10:17:23;;;;;;;14.20;9.80;;;;;;;17.79;100.00;98204.53;109781;1250;59038;-70
2023/10/30 10:19:50;;;;;;;16.60;8.70;;;;;;;17.90;100.00;98212.89;109815;1249;58979;-71
2023/10/30 10:22:31;;;;;;;13.80;8.70;;;;;;;17.97;100.00;98218.04;109796;1250;59050;-71
2023/10/30 10:25:00;;;;;;;14.90;8.60;;;;;;;18.00;100.00;98219.52;109576;1251;59031;-71
2023/10/30 10:27:27;;;;;;;11.10;8.50;;;;;;;18.07;100.00;98213.56;109794;1249;66076;-69
2023/10/30 10:29:55;;;;;;;13.60;8.30;;;;;;;18.13;100.00;98208.23;109807;1249;59761;-70
2023/10/30 10:32:25;;;;;;;14.20;8.50;;;;;;;18.16;100.00;98211.23;109804;1249;64025;-70
2023/10/30 10:35:02;;;;;;;11.80;9.20;;;;;;;18.18;100.00;98211.16;109803;1249;58959;-70
2023/10/30 10:37:29;;;;;;;11.30;8.50;;;;;;;18.16;100.00;98210.66;109854;1249;59003;-70
2023/10/30 10:39:56;;;;;;;17.00;9.10;;;;;;;18.23;100.00;98216.04;109837;1249;65737;-70
2023/10/30 10:42:24;;;;;;;14.40;9.80;;;;;;;18.28;100.00;98214.92;109572;1251;61717;-70
2023/10/30 10:44:52;;;;;;;12.30;9.20;;;;;;;18.27;100.00;98215.84;109386;1249;63960;-70
2023/10/30 10:47:20;;;;;;;12.90;8.80;;;;;;;18.25;100.00;98215.30;109798;1249;58946;-70
2023/10/30 10:49:48;;;;;;;13.50;8.60;;;;;;;18.29;100.00;98213.40;109512;1249;58983;-71
2023/10/30 10:52:17;;;;;;;10.60;7.80;;;;;;;18.35;100.00;98210.25;109795;1250;65710;-71
2023/10/30 10:54:57;;;;;;;13.40;6.70;;;;;;;18.32;100.00;98203.85;109822;1249;59070;-71
2023/10/30 10:57:24;;;;;;;9.90;7.70;;;;;;;18.31;100.00;98203.29;109596;1251;73833;-71
2023/10/30 10:59:58;;;;;;;13.10;7.70;;;;;;;18.33;100.00;98203.65;109782;1250;58924;-71
2023/10/30 11:02:31;;;;;;;12.50;7.90;;;;;;;18.39;100.00;98199.77;109778;1249;58950;-71
2023/10/30 11:04:58;;;;;;;8.70;6.30;;;;;;;18.45;100.00;98202.08;109804;1250;64479;-71
2023/10/30 11:07:31;;;;;;;12.70;8.50;;;;;;;18.51;100.00;98201.49;109778;1249;59043;-71